sensor_id;sensor_type;location;lat;lon;timestamp;P1;durP1;ratioP1;P2;durP2;ratioP2
17917;SDS011;9084;50.956;3.106;2023-07-13T00:01:03;9.38;;;2.88;;
17917;SDS011;9084;50.956;3.106;2023-07-13T00:03:31;6.18;;;2.38;;
17917;SDS011;9084;50.956;3.106;2023-07-13T00:06:02;8.38;;;2.63;;
17917;SDS011;9084;50.956;3.106;2023-07-13T00:08:30;8.88;;;3.00;;
17917;SDS011;9084;50.956;3.106;2023-07-13T00:10:57;6.88;;;3.00;;
17917;SDS011;9084;50.956;3.106;2023-07-13T00:13:28;8.93;;;3.17;;
17917;SDS011;9084;50.956;3.106;2023-07-13T00:15:57;7.40;;;2.88;;
17917;SDS011;9084;50.956;3.106;2023-07-13T00:18:23;6.07;;;2.85;;
17917;SDS011;9084;50.956;3.106;2023-07-13T00:20:51;10.40;;;3.70;;
17917;SDS011;9084;50.956;3.106;2023-07-13T00:23:19;14.23;;;3.42;;
17917;SDS011;9084;50.956;3.106;2023-07-13T00:25:48;10.30;;;3.05;;
17917;SDS011;9084;50.956;3.106;2023-07-13T00:28:15;6.88;;;3.33;;
17917;SDS011;9084;50.956;3.106;2023-07-13T00:30:41;11.25;;;3.30;;
17917;SDS011;9084;50.956;3.106;2023-07-13T00:33:07;9.75;;;3.17;;
17917;SDS011;9084;50.956;3.106;2023-07-13T00:35:35;7.63;;;2.78;;
17917;SDS011;9084;50.956;3.106;2023-07-13T00:38:00;11.32;;;3.65;;
17917;SDS011;9084;50.956;3.106;2023-07-13T00:40:28;9.25;;;3.33;;
17917;SDS011;9084;50.956;3.106;2023-07-13T00:42:56;7.10;;;2.60;;
17917;SDS011;9084;50.956;3.106;2023-07-13T00:47:54;7.18;;;3.28;;
17917;SDS011;9084;50.956;3.106;2023-07-13T00:50:26;7.45;;;3.05;;
17917;SDS011;9084;50.956;3.106;2023-07-13T00:52:56;7.55;;;2.97;;
17917;SDS011;9084;50.956;3.106;2023-07-13T00:55:24;7.72;;;2.75;;
17917;SDS011;9084;50.956;3.106;2023-07-13T00:57:52;10.88;;;3.70;;
17917;SDS011;9084;50.956;3.106;2023-07-13T01:00:20;10.02;;;2.92;;
17917;SDS011;9084;50.956;3.106;2023-07-13T01:02:47;8.70;;;2.97;;
17917;SDS011;9084;50.956;3.106;2023-07-13T01:05:20;7.50;;;2.95;;
17917;SDS011;9084;50.956;3.106;2023-07-13T01:07:49;10.93;;;3.72;;
17917;SDS011;9084;50.956;3.106;2023-07-13T01:10:17;10.02;;;3.53;;
17917;SDS011;9084;50.956;3.106;2023-07-13T01:12:47;7.25;;;3.13;;
17917;SDS011;9084;50.956;3.106;2023-07-13T01:18:10;7.63;;;3.10;;
17917;SDS011;9084;50.956;3.106;2023-07-13T01:20:40;11.60;;;3.72;;
17917;SDS011;9084;50.956;3.106;2023-07-13T01:23:07;7.50;;;3.15;;
17917;SDS011;9084;50.956;3.106;2023-07-13T01:25:38;11.27;;;3.75;;
17917;SDS011;9084;50.956;3.106;2023-07-13T01:28:09;7.03;;;3.20;;
17917;SDS011;9084;50.956;3.106;2023-07-13T01:30:36;9.30;;;3.95;;
17917;SDS011;9084;50.956;3.106;2023-07-13T01:33:05;9.73;;;3.83;;
17917;SDS011;9084;50.956;3.106;2023-07-13T01:35:34;13.27;;;3.85;;
17917;SDS011;9084;50.956;3.106;2023-07-13T01:38:01;7.85;;;3.85;;
17917;SDS011;9084;50.956;3.106;2023-07-13T01:40:30;10.85;;;3.85;;
17917;SDS011;9084;50.956;3.106;2023-07-13T01:42:55;10.80;;;3.45;;
17917;SDS011;9084;50.956;3.106;2023-07-13T01:45:22;7.88;;;3.10;;
17917;SDS011;9084;50.956;3.106;2023-07-13T01:47:48;11.93;;;4.30;;
17917;SDS011;9084;50.956;3.106;2023-07-13T01:50:16;10.55;;;3.60;;
17917;SDS011;9084;50.956;3.106;2023-07-13T01:52:44;11.05;;;3.33;;
17917;SDS011;9084;50.956;3.106;2023-07-13T01:55:10;11.57;;;3.88;;
17917;SDS011;9084;50.956;3.106;2023-07-13T01:57:35;10.20;;;3.90;;
17917;SDS011;9084;50.956;3.106;2023-07-13T02:00:03;8.85;;;3.58;;
17917;SDS011;9084;50.956;3.106;2023-07-13T02:02:32;8.18;;;3.58;;
17917;SDS011;9084;50.956;3.106;2023-07-13T02:04:58;11.55;;;4.22;;
17917;SDS011;9084;50.956;3.106;2023-07-13T02:07:26;9.27;;;3.95;;
17917;SDS011;9084;50.956;3.106;2023-07-13T02:09:54;9.38;;;3.80;;
17917;SDS011;9084;50.956;3.106;2023-07-13T02:12:20;12.73;;;3.33;;
17917;SDS011;9084;50.956;3.106;2023-07-13T02:14:48;11.38;;;4.03;;
17917;SDS011;9084;50.956;3.106;2023-07-13T02:17:16;10.15;;;3.47;;
17917;SDS011;9084;50.956;3.106;2023-07-13T02:19:44;11.70;;;3.70;;
17917;SDS011;9084;50.956;3.106;2023-07-13T02:22:09;10.52;;;4.03;;
17917;SDS011;9084;50.956;3.106;2023-07-13T02:24:35;9.23;;;3.88;;
17917;SDS011;9084;50.956;3.106;2023-07-13T02:27:04;8.77;;;3.58;;
17917;SDS011;9084;50.956;3.106;2023-07-13T02:29:32;7.07;;;3.67;;
17917;SDS011;9084;50.956;3.106;2023-07-13T02:31:57;6.88;;;3.10;;
17917;SDS011;9084;50.956;3.106;2023-07-13T02:34:23;10.02;;;3.85;;
17917;SDS011;9084;50.956;3.106;2023-07-13T02:36:51;11.85;;;3.88;;
17917;SDS011;9084;50.956;3.106;2023-07-13T02:39:16;7.22;;;3.75;;
17917;SDS011;9084;50.956;3.106;2023-07-13T02:41:42;10.38;;;3.90;;
17917;SDS011;9084;50.956;3.106;2023-07-13T02:44:08;7.70;;;3.55;;
17917;SDS011;9084;50.956;3.106;2023-07-13T02:46:37;10.13;;;3.28;;
17917;SDS011;9084;50.956;3.106;2023-07-13T02:49:03;7.95;;;3.60;;
17917;SDS011;9084;50.956;3.106;2023-07-13T02:51:29;9.30;;;3.72;;
17917;SDS011;9084;50.956;3.106;2023-07-13T02:53:57;11.52;;;3.70;;
17917;SDS011;9084;50.956;3.106;2023-07-13T02:56:28;11.98;;;4.18;;
17917;SDS011;9084;50.956;3.106;2023-07-13T02:58:55;6.60;;;3.28;;
17917;SDS011;9084;50.956;3.106;2023-07-13T03:01:21;9.07;;;3.60;;
17917;SDS011;9084;50.956;3.106;2023-07-13T03:03:48;11.25;;;3.67;;
17917;SDS011;9084;50.956;3.106;2023-07-13T03:06:15;8.25;;;3.53;;
17917;SDS011;9084;50.956;3.106;2023-07-13T03:08:44;7.88;;;3.42;;
17917;SDS011;9084;50.956;3.106;2023-07-13T03:11:15;13.02;;;4.18;;
17917;SDS011;9084;50.956;3.106;2023-07-13T03:13:42;10.88;;;3.40;;
17917;SDS011;9084;50.956;3.106;2023-07-13T03:16:09;7.72;;;3.55;;
17917;SDS011;9084;50.956;3.106;2023-07-13T03:18:35;7.45;;;3.42;;
17917;SDS011;9084;50.956;3.106;2023-07-13T03:21:04;10.20;;;3.97;;
17917;SDS011;9084;50.956;3.106;2023-07-13T03:23:30;12.23;;;4.35;;
17917;SDS011;9084;50.956;3.106;2023-07-13T03:28:34;11.27;;;3.72;;
17917;SDS011;9084;50.956;3.106;2023-07-13T03:31:08;9.75;;;3.90;;
17917;SDS011;9084;50.956;3.106;2023-07-13T03:33:36;7.03;;;3.70;;
17917;SDS011;9084;50.956;3.106;2023-07-13T03:36:05;9.75;;;3.88;;
17917;SDS011;9084;50.956;3.106;2023-07-13T03:38:34;7.72;;;3.67;;
17917;SDS011;9084;50.956;3.106;2023-07-13T03:41:02;9.25;;;4.30;;
17917;SDS011;9084;50.956;3.106;2023-07-13T03:43:27;8.05;;;3.65;;
17917;SDS011;9084;50.956;3.106;2023-07-13T03:45:55;6.28;;;3.20;;
17917;SDS011;9084;50.956;3.106;2023-07-13T03:48:21;11.02;;;3.72;;
17917;SDS011;9084;50.956;3.106;2023-07-13T03:50:47;13.57;;;3.42;;
17917;SDS011;9084;50.956;3.106;2023-07-13T03:53:14;10.63;;;3.78;;
17917;SDS011;9084;50.956;3.106;2023-07-13T03:55:40;10.52;;;3.40;;
17917;SDS011;9084;50.956;3.106;2023-07-13T04:00:58;9.18;;;3.83;;
17917;SDS011;9084;50.956;3.106;2023-07-13T04:03:25;8.88;;;3.97;;
17917;SDS011;9084;50.956;3.106;2023-07-13T04:05:55;9.10;;;3.60;;
17917;SDS011;9084;50.956;3.106;2023-07-13T04:08:28;10.00;;;3.17;;
17917;SDS011;9084;50.956;3.106;2023-07-13T04:10:55;11.05;;;3.60;;
17917;SDS011;9084;50.956;3.106;2023-07-13T04:13:22;9.50;;;3.42;;
17917;SDS011;9084;50.956;3.106;2023-07-13T04:15:50;8.65;;;3.40;;
17917;SDS011;9084;50.956;3.106;2023-07-13T04:18:19;9.20;;;3.88;;
17917;SDS011;9084;50.956;3.106;2023-07-13T04:20:46;7.07;;;3.47;;
17917;SDS011;9084;50.956;3.106;2023-07-13T04:23:14;7.35;;;3.38;;
17917;SDS011;9084;50.956;3.106;2023-07-13T04:25:44;9.40;;;3.42;;
17917;SDS011;9084;50.956;3.106;2023-07-13T04:28:14;6.20;;;3.20;;
17917;SDS011;9084;50.956;3.106;2023-07-13T04:30:44;12.60;;;3.53;;
17917;SDS011;9084;50.956;3.106;2023-07-13T04:33:12;9.68;;;2.83;;
17917;SDS011;9084;50.956;3.106;2023-07-13T04:35:38;5.32;;;3.10;;
17917;SDS011;9084;50.956;3.106;2023-07-13T04:38:04;7.35;;;3.60;;
17917;SDS011;9084;50.956;3.106;2023-07-13T04:40:32;9.75;;;3.85;;
17917;SDS011;9084;50.956;3.106;2023-07-13T04:43:02;6.95;;;3.22;;
17917;SDS011;9084;50.956;3.106;2023-07-13T04:45:30;8.23;;;3.15;;
17917;SDS011;9084;50.956;3.106;2023-07-13T04:47:56;10.18;;;3.17;;
17917;SDS011;9084;50.956;3.106;2023-07-13T04:50:22;11.88;;;3.53;;
17917;SDS011;9084;50.956;3.106;2023-07-13T04:52:51;9.63;;;3.30;;
17917;SDS011;9084;50.956;3.106;2023-07-13T04:55:19;10.23;;;3.80;;
17917;SDS011;9084;50.956;3.106;2023-07-13T04:57:47;11.23;;;3.67;;
17917;SDS011;9084;50.956;3.106;2023-07-13T05:00:13;7.00;;;3.40;;
17917;SDS011;9084;50.956;3.106;2023-07-13T05:02:45;6.43;;;3.20;;
17917;SDS011;9084;50.956;3.106;2023-07-13T05:05:13;11.70;;;3.70;;
17917;SDS011;9084;50.956;3.106;2023-07-13T05:07:41;13.45;;;3.92;;
17917;SDS011;9084;50.956;3.106;2023-07-13T05:10:09;10.65;;;3.47;;
17917;SDS011;9084;50.956;3.106;2023-07-13T05:12:35;9.57;;;3.97;;
17917;SDS011;9084;50.956;3.106;2023-07-13T05:15:05;7.40;;;3.47;;
17917;SDS011;9084;50.956;3.106;2023-07-13T05:17:34;8.38;;;3.20;;
17917;SDS011;9084;50.956;3.106;2023-07-13T05:20:00;8.77;;;3.50;;
17917;SDS011;9084;50.956;3.106;2023-07-13T05:22:27;9.30;;;3.15;;
17917;SDS011;9084;50.956;3.106;2023-07-13T05:24:53;9.35;;;3.60;;
17917;SDS011;9084;50.956;3.106;2023-07-13T05:27:21;8.60;;;3.47;;
17917;SDS011;9084;50.956;3.106;2023-07-13T05:29:47;7.07;;;3.53;;
17917;SDS011;9084;50.956;3.106;2023-07-13T05:32:13;8.65;;;3.45;;
17917;SDS011;9084;50.956;3.106;2023-07-13T05:34:41;9.55;;;3.47;;
17917;SDS011;9084;50.956;3.106;2023-07-13T05:37:09;8.13;;;3.13;;
17917;SDS011;9084;50.956;3.106;2023-07-13T05:39:35;7.90;;;3.03;;
17917;SDS011;9084;50.956;3.106;2023-07-13T05:42:01;8.30;;;2.83;;
17917;SDS011;9084;50.956;3.106;2023-07-13T05:44:29;8.57;;;3.13;;
17917;SDS011;9084;50.956;3.106;2023-07-13T05:46:57;9.77;;;3.75;;
17917;SDS011;9084;50.956;3.106;2023-07-13T05:49:23;11.98;;;3.80;;
17917;SDS011;9084;50.956;3.106;2023-07-13T05:51:51;8.02;;;3.50;;
17917;SDS011;9084;50.956;3.106;2023-07-13T05:54:19;9.30;;;3.35;;
17917;SDS011;9084;50.956;3.106;2023-07-13T05:56:47;9.48;;;3.70;;
17917;SDS011;9084;50.956;3.106;2023-07-13T05:59:15;9.82;;;3.28;;
17917;SDS011;9084;50.956;3.106;2023-07-13T06:01:43;9.27;;;3.42;;
17917;SDS011;9084;50.956;3.106;2023-07-13T06:04:11;7.43;;;3.40;;
17917;SDS011;9084;50.956;3.106;2023-07-13T06:06:37;8.40;;;2.97;;
17917;SDS011;9084;50.956;3.106;2023-07-13T06:09:05;9.15;;;3.03;;
17917;SDS011;9084;50.956;3.106;2023-07-13T06:11:30;8.65;;;3.30;;
17917;SDS011;9084;50.956;3.106;2023-07-13T06:13:58;7.30;;;3.13;;
17917;SDS011;9084;50.956;3.106;2023-07-13T06:16:24;10.10;;;3.13;;
17917;SDS011;9084;50.956;3.106;2023-07-13T06:18:52;8.13;;;3.08;;
17917;SDS011;9084;50.956;3.106;2023-07-13T06:21:19;7.30;;;2.83;;
17917;SDS011;9084;50.956;3.106;2023-07-13T06:23:46;8.63;;;3.60;;
17917;SDS011;9084;50.956;3.106;2023-07-13T06:26:13;9.88;;;3.25;;
17917;SDS011;9084;50.956;3.106;2023-07-13T06:28:42;6.55;;;3.00;;
17917;SDS011;9084;50.956;3.106;2023-07-13T06:31:11;7.93;;;2.92;;
17917;SDS011;9084;50.956;3.106;2023-07-13T06:33:38;7.93;;;2.97;;
17917;SDS011;9084;50.956;3.106;2023-07-13T06:36:04;5.95;;;2.70;;
17917;SDS011;9084;50.956;3.106;2023-07-13T06:38:32;8.10;;;3.22;;
17917;SDS011;9084;50.956;3.106;2023-07-13T06:41:00;52.80;;;6.65;;
17917;SDS011;9084;50.956;3.106;2023-07-13T06:43:30;7.93;;;3.08;;
17917;SDS011;9084;50.956;3.106;2023-07-13T06:45:58;9.40;;;3.60;;
17917;SDS011;9084;50.956;3.106;2023-07-13T06:48:24;11.50;;;3.60;;
17917;SDS011;9084;50.956;3.106;2023-07-13T06:50:50;7.07;;;3.08;;
17917;SDS011;9084;50.956;3.106;2023-07-13T06:53:17;10.82;;;2.83;;
17917;SDS011;9084;50.956;3.106;2023-07-13T06:55:46;7.38;;;2.80;;
17917;SDS011;9084;50.956;3.106;2023-07-13T06:58:13;7.57;;;2.97;;
17917;SDS011;9084;50.956;3.106;2023-07-13T07:00:39;10.23;;;3.25;;
17917;SDS011;9084;50.956;3.106;2023-07-13T07:03:07;7.72;;;3.47;;
17917;SDS011;9084;50.956;3.106;2023-07-13T07:05:33;8.45;;;2.90;;
17917;SDS011;9084;50.956;3.106;2023-07-13T07:07:59;7.60;;;3.13;;
17917;SDS011;9084;50.956;3.106;2023-07-13T07:10:29;11.98;;;3.08;;
17917;SDS011;9084;50.956;3.106;2023-07-13T07:12:58;9.43;;;3.20;;
17917;SDS011;9084;50.956;3.106;2023-07-13T07:15:25;9.13;;;2.95;;
17917;SDS011;9084;50.956;3.106;2023-07-13T07:17:55;6.72;;;2.53;;
17917;SDS011;9084;50.956;3.106;2023-07-13T07:20:25;7.85;;;2.58;;
17917;SDS011;9084;50.956;3.106;2023-07-13T07:22:52;9.88;;;2.88;;
17917;SDS011;9084;50.956;3.106;2023-07-13T07:25:19;7.82;;;3.20;;
17917;SDS011;9084;50.956;3.106;2023-07-13T07:27:45;7.30;;;2.88;;
17917;SDS011;9084;50.956;3.106;2023-07-13T07:30:13;8.38;;;3.03;;
17917;SDS011;9084;50.956;3.106;2023-07-13T07:32:40;6.93;;;2.72;;
17917;SDS011;9084;50.956;3.106;2023-07-13T07:35:08;8.63;;;3.00;;
17917;SDS011;9084;50.956;3.106;2023-07-13T07:37:33;7.22;;;2.22;;
17917;SDS011;9084;50.956;3.106;2023-07-13T07:40:01;7.70;;;2.72;;
17917;SDS011;9084;50.956;3.106;2023-07-13T07:42:29;10.18;;;3.38;;
17917;SDS011;9084;50.956;3.106;2023-07-13T07:44:57;5.63;;;2.60;;
17917;SDS011;9084;50.956;3.106;2023-07-13T07:47:25;8.82;;;3.17;;
17917;SDS011;9084;50.956;3.106;2023-07-13T07:49:53;8.82;;;2.80;;
17917;SDS011;9084;50.956;3.106;2023-07-13T07:52:21;6.00;;;2.85;;
17917;SDS011;9084;50.956;3.106;2023-07-13T07:54:52;6.65;;;2.17;;
17917;SDS011;9084;50.956;3.106;2023-07-13T07:57:20;6.13;;;2.38;;
17917;SDS011;9084;50.956;3.106;2023-07-13T07:59:46;4.25;;;2.30;;
17917;SDS011;9084;50.956;3.106;2023-07-13T08:02:11;6.25;;;2.30;;
17917;SDS011;9084;50.956;3.106;2023-07-13T08:04:41;6.80;;;2.25;;
17917;SDS011;9084;50.956;3.106;2023-07-13T08:07:09;8.30;;;2.65;;
17917;SDS011;9084;50.956;3.106;2023-07-13T08:09:35;4.20;;;2.50;;
17917;SDS011;9084;50.956;3.106;2023-07-13T08:12:01;6.35;;;2.20;;
17917;SDS011;9084;50.956;3.106;2023-07-13T08:14:31;4.47;;;2.30;;
17917;SDS011;9084;50.956;3.106;2023-07-13T08:17:00;7.75;;;2.40;;
17917;SDS011;9084;50.956;3.106;2023-07-13T08:19:25;6.30;;;2.17;;
17917;SDS011;9084;50.956;3.106;2023-07-13T08:21:57;5.65;;;1.75;;
17917;SDS011;9084;50.956;3.106;2023-07-13T08:24:25;7.25;;;2.15;;
17917;SDS011;9084;50.956;3.106;2023-07-13T08:26:53;5.25;;;2.20;;
17917;SDS011;9084;50.956;3.106;2023-07-13T08:29:20;7.50;;;2.33;;
17917;SDS011;9084;50.956;3.106;2023-07-13T08:31:45;5.80;;;2.47;;
17917;SDS011;9084;50.956;3.106;2023-07-13T08:34:11;7.75;;;2.53;;
17917;SDS011;9084;50.956;3.106;2023-07-13T08:36:37;6.13;;;2.42;;
17917;SDS011;9084;50.956;3.106;2023-07-13T08:39:05;5.38;;;1.98;;
17917;SDS011;9084;50.956;3.106;2023-07-13T08:41:31;5.95;;;2.55;;
17917;SDS011;9084;50.956;3.106;2023-07-13T08:43:58;4.82;;;2.33;;
17917;SDS011;9084;50.956;3.106;2023-07-13T08:46:46;4.95;;;2.25;;
17917;SDS011;9084;50.956;3.106;2023-07-13T08:49:13;5.03;;;2.22;;
17917;SDS011;9084;50.956;3.106;2023-07-13T08:54:22;3.78;;;2.25;;
17917;SDS011;9084;50.956;3.106;2023-07-13T08:57:02;5.22;;;1.80;;
17917;SDS011;9084;50.956;3.106;2023-07-13T08:59:36;6.35;;;1.77;;
17917;SDS011;9084;50.956;3.106;2023-07-13T09:02:09;7.97;;;2.17;;
17917;SDS011;9084;50.956;3.106;2023-07-13T09:05:20;3.25;;;1.73;;
17917;SDS011;9084;50.956;3.106;2023-07-13T09:10:27;4.57;;;1.60;;
17917;SDS011;9084;50.956;3.106;2023-07-13T09:15:48;3.65;;;1.50;;
17917;SDS011;9084;50.956;3.106;2023-07-13T09:18:23;5.18;;;1.65;;
17917;SDS011;9084;50.956;3.106;2023-07-13T09:21:02;3.15;;;1.60;;
17917;SDS011;9084;50.956;3.106;2023-07-13T09:23:31;5.82;;;2.15;;
17917;SDS011;9084;50.956;3.106;2023-07-13T09:26:21;3.03;;;1.23;;
17917;SDS011;9084;50.956;3.106;2023-07-13T09:28:51;5.47;;;1.80;;
17917;SDS011;9084;50.956;3.106;2023-07-13T09:34:00;3.35;;;1.40;;
17917;SDS011;9084;50.956;3.106;2023-07-13T09:36:30;6.53;;;1.50;;
17917;SDS011;9084;50.956;3.106;2023-07-13T09:41:29;4.57;;;1.45;;
17917;SDS011;9084;50.956;3.106;2023-07-13T09:46:36;4.95;;;1.33;;
17917;SDS011;9084;50.956;3.106;2023-07-13T09:49:03;4.28;;;1.55;;
17917;SDS011;9084;50.956;3.106;2023-07-13T09:51:29;6.03;;;1.70;;
17917;SDS011;9084;50.956;3.106;2023-07-13T09:53:55;3.17;;;1.48;;
17917;SDS011;9084;50.956;3.106;2023-07-13T09:56:22;4.70;;;2.20;;
17917;SDS011;9084;50.956;3.106;2023-07-13T09:58:54;9.13;;;3.05;;
17917;SDS011;9084;50.956;3.106;2023-07-13T10:01:34;7.57;;;3.15;;
17917;SDS011;9084;50.956;3.106;2023-07-13T10:04:01;4.97;;;2.35;;
17917;SDS011;9084;50.956;3.106;2023-07-13T10:06:38;5.32;;;2.33;;
17917;SDS011;9084;50.956;3.106;2023-07-13T10:09:08;4.25;;;2.05;;
17917;SDS011;9084;50.956;3.106;2023-07-13T10:11:35;4.15;;;2.38;;
17917;SDS011;9084;50.956;3.106;2023-07-13T10:14:12;5.22;;;2.28;;
17917;SDS011;9084;50.956;3.106;2023-07-13T10:16:41;5.65;;;2.85;;
17917;SDS011;9084;50.956;3.106;2023-07-13T10:21:52;3.83;;;2.13;;
17917;SDS011;9084;50.956;3.106;2023-07-13T10:24:26;4.70;;;2.50;;
17917;SDS011;9084;50.956;3.106;2023-07-13T10:29:40;2.72;;;1.98;;
17917;SDS011;9084;50.956;3.106;2023-07-13T10:32:11;3.95;;;2.00;;
17917;SDS011;9084;50.956;3.106;2023-07-13T10:34:38;3.30;;;2.22;;
17917;SDS011;9084;50.956;3.106;2023-07-13T10:37:07;3.63;;;2.15;;
17917;SDS011;9084;50.956;3.106;2023-07-13T10:39:46;3.10;;;2.15;;
17917;SDS011;9084;50.956;3.106;2023-07-13T10:42:13;3.15;;;2.30;;
17917;SDS011;9084;50.956;3.106;2023-07-13T10:44:52;4.53;;;2.20;;
17917;SDS011;9084;50.956;3.106;2023-07-13T10:47:17;3.20;;;2.17;;
17917;SDS011;9084;50.956;3.106;2023-07-13T10:49:48;3.38;;;2.20;;
17917;SDS011;9084;50.956;3.106;2023-07-13T10:57:59;3.83;;;2.08;;
17917;SDS011;9084;50.956;3.106;2023-07-13T11:00:25;2.58;;;1.35;;
17917;SDS011;9084;50.956;3.106;2023-07-13T11:02:56;4.50;;;1.80;;
17917;SDS011;9084;50.956;3.106;2023-07-13T11:05:30;4.55;;;1.45;;
17917;SDS011;9084;50.956;3.106;2023-07-13T11:08:19;3.47;;;1.55;;
17917;SDS011;9084;50.956;3.106;2023-07-13T11:10:57;3.63;;;1.50;;
17917;SDS011;9084;50.956;3.106;2023-07-13T11:16:02;3.92;;;1.80;;
17917;SDS011;9084;50.956;3.106;2023-07-13T11:18:40;2.70;;;1.30;;
17917;SDS011;9084;50.956;3.106;2023-07-13T11:21:17;2.65;;;1.20;;
17917;SDS011;9084;50.956;3.106;2023-07-13T11:23:45;2.33;;;1.20;;
17917;SDS011;9084;50.956;3.106;2023-07-13T11:29:53;4.22;;;1.20;;
17917;SDS011;9084;50.956;3.106;2023-07-13T11:31:57;3.95;;;1.42;;
17917;SDS011;9084;50.956;3.106;2023-07-13T11:34:45;2.45;;;1.45;;
17917;SDS011;9084;50.956;3.106;2023-07-13T11:37:12;4.22;;;1.20;;
17917;SDS011;9084;50.956;3.106;2023-07-13T11:39:46;2.33;;;1.30;;
17917;SDS011;9084;50.956;3.106;2023-07-13T11:42:15;2.90;;;1.15;;
17917;SDS011;9084;50.956;3.106;2023-07-13T11:44:46;1.50;;;1.05;;
17917;SDS011;9084;50.956;3.106;2023-07-13T11:47:17;2.35;;;1.27;;
17917;SDS011;9084;50.956;3.106;2023-07-13T11:49:53;2.08;;;1.17;;
17917;SDS011;9084;50.956;3.106;2023-07-13T11:52:23;2.63;;;1.05;;
17917;SDS011;9084;50.956;3.106;2023-07-13T11:55:00;2.15;;;1.17;;
17917;SDS011;9084;50.956;3.106;2023-07-13T11:57:36;2.65;;;0.93;;
17917;SDS011;9084;50.956;3.106;2023-07-13T12:00:28;2.60;;;1.38;;
17917;SDS011;9084;50.956;3.106;2023-07-13T12:02:59;2.95;;;1.20;;
17917;SDS011;9084;50.956;3.106;2023-07-13T12:05:29;1.73;;;1.10;;
17917;SDS011;9084;50.956;3.106;2023-07-13T12:07:56;2.45;;;1.10;;
17917;SDS011;9084;50.956;3.106;2023-07-13T12:12:56;1.70;;;1.08;;
17917;SDS011;9084;50.956;3.106;2023-07-13T12:15:28;1.45;;;1.20;;
17917;SDS011;9084;50.956;3.106;2023-07-13T12:18:02;2.38;;;1.15;;
17917;SDS011;9084;50.956;3.106;2023-07-13T12:20:36;0.93;;;0.82;;
17917;SDS011;9084;50.956;3.106;2023-07-13T12:23:14;3.10;;;1.08;;
17917;SDS011;9084;50.956;3.106;2023-07-13T12:25:57;1.42;;;0.65;;
17917;SDS011;9084;50.956;3.106;2023-07-13T12:31:01;3.75;;;0.90;;
17917;SDS011;9084;50.956;3.106;2023-07-13T12:33:31;1.48;;;1.00;;
17917;SDS011;9084;50.956;3.106;2023-07-13T12:36:03;3.33;;;1.15;;
17917;SDS011;9084;50.956;3.106;2023-07-13T12:38:34;2.92;;;0.93;;
17917;SDS011;9084;50.956;3.106;2023-07-13T12:41:01;2.22;;;0.77;;
17917;SDS011;9084;50.956;3.106;2023-07-13T12:43:34;1.75;;;0.90;;
17917;SDS011;9084;50.956;3.106;2023-07-13T12:46:05;2.65;;;1.00;;
17917;SDS011;9084;50.956;3.106;2023-07-13T12:48:42;2.42;;;0.93;;
17917;SDS011;9084;50.956;3.106;2023-07-13T12:51:13;1.55;;;0.88;;
17917;SDS011;9084;50.956;3.106;2023-07-13T12:53:41;1.42;;;1.25;;
17917;SDS011;9084;50.956;3.106;2023-07-13T12:56:11;2.42;;;1.20;;
17917;SDS011;9084;50.956;3.106;2023-07-13T12:58:45;2.22;;;0.90;;
17917;SDS011;9084;50.956;3.106;2023-07-13T13:01:19;3.60;;;1.42;;
17917;SDS011;9084;50.956;3.106;2023-07-13T13:03:52;4.20;;;0.98;;
17917;SDS011;9084;50.956;3.106;2023-07-13T13:08:47;2.90;;;1.60;;
17917;SDS011;9084;50.956;3.106;2023-07-13T13:11:31;2.08;;;0.82;;
17917;SDS011;9084;50.956;3.106;2023-07-13T13:13:57;3.97;;;1.02;;
17917;SDS011;9084;50.956;3.106;2023-07-13T13:18:52;2.90;;;1.05;;
17917;SDS011;9084;50.956;3.106;2023-07-13T13:21:22;2.45;;;1.10;;
17917;SDS011;9084;50.956;3.106;2023-07-13T13:23:53;1.50;;;0.80;;
17917;SDS011;9084;50.956;3.106;2023-07-13T13:26:21;4.40;;;0.80;;
17917;SDS011;9084;50.956;3.106;2023-07-13T13:28:47;2.15;;;0.70;;
17917;SDS011;9084;50.956;3.106;2023-07-13T13:31:14;2.33;;;0.88;;
17917;SDS011;9084;50.956;3.106;2023-07-13T13:33:43;2.15;;;1.08;;
17917;SDS011;9084;50.956;3.106;2023-07-13T13:36:20;1.67;;;1.00;;
17917;SDS011;9084;50.956;3.106;2023-07-13T13:38:50;1.48;;;0.85;;
17917;SDS011;9084;50.956;3.106;2023-07-13T13:41:16;1.77;;;0.95;;
17917;SDS011;9084;50.956;3.106;2023-07-13T13:43:42;1.27;;;0.88;;
17917;SDS011;9084;50.956;3.106;2023-07-13T13:46:18;3.53;;;0.85;;
17917;SDS011;9084;50.956;3.106;2023-07-13T13:48:47;1.98;;;1.00;;
17917;SDS011;9084;50.956;3.106;2023-07-13T13:51:20;2.13;;;0.80;;
17917;SDS011;9084;50.956;3.106;2023-07-13T13:53:48;1.70;;;0.93;;
17917;SDS011;9084;50.956;3.106;2023-07-13T13:56:15;1.33;;;1.08;;
17917;SDS011;9084;50.956;3.106;2023-07-13T13:58:42;2.17;;;1.10;;
17917;SDS011;9084;50.956;3.106;2023-07-13T14:01:20;3.47;;;1.05;;
17917;SDS011;9084;50.956;3.106;2023-07-13T14:03:48;2.03;;;1.20;;
17917;SDS011;9084;50.956;3.106;2023-07-13T14:06:16;2.15;;;0.90;;
17917;SDS011;9084;50.956;3.106;2023-07-13T14:08:44;3.33;;;0.80;;
17917;SDS011;9084;50.956;3.106;2023-07-13T14:11:13;1.10;;;0.77;;
17917;SDS011;9084;50.956;3.106;2023-07-13T14:13:42;2.35;;;0.90;;
17917;SDS011;9084;50.956;3.106;2023-07-13T14:16:13;0.80;;;0.70;;
17917;SDS011;9084;50.956;3.106;2023-07-13T14:18:42;1.85;;;0.60;;
17917;SDS011;9084;50.956;3.106;2023-07-13T14:21:15;1.33;;;0.80;;
17917;SDS011;9084;50.956;3.106;2023-07-13T14:23:43;1.20;;;0.77;;
17917;SDS011;9084;50.956;3.106;2023-07-13T14:26:16;1.30;;;0.90;;
17917;SDS011;9084;50.956;3.106;2023-07-13T14:28:47;1.63;;;1.15;;
17917;SDS011;9084;50.956;3.106;2023-07-13T14:31:15;1.13;;;0.85;;
17917;SDS011;9084;50.956;3.106;2023-07-13T14:33:44;1.98;;;1.10;;
17917;SDS011;9084;50.956;3.106;2023-07-13T14:36:44;2.13;;;0.90;;
17917;SDS011;9084;50.956;3.106;2023-07-13T14:39:21;2.35;;;0.63;;
17917;SDS011;9084;50.956;3.106;2023-07-13T14:41:53;3.47;;;1.08;;
17917;SDS011;9084;50.956;3.106;2023-07-13T14:44:22;1.17;;;0.93;;
17917;SDS011;9084;50.956;3.106;2023-07-13T14:46:54;2.15;;;0.90;;
17917;SDS011;9084;50.956;3.106;2023-07-13T14:49:42;2.03;;;1.00;;
17917;SDS011;9084;50.956;3.106;2023-07-13T14:52:13;2.03;;;1.10;;
17917;SDS011;9084;50.956;3.106;2023-07-13T14:54:44;2.28;;;1.00;;
17917;SDS011;9084;50.956;3.106;2023-07-13T14:57:11;1.83;;;1.15;;
17917;SDS011;9084;50.956;3.106;2023-07-13T14:59:39;3.33;;;0.93;;
17917;SDS011;9084;50.956;3.106;2023-07-13T15:02:27;2.35;;;1.05;;
17917;SDS011;9084;50.956;3.106;2023-07-13T15:04:56;2.25;;;1.20;;
17917;SDS011;9084;50.956;3.106;2023-07-13T15:07:22;1.15;;;0.90;;
17917;SDS011;9084;50.956;3.106;2023-07-13T15:09:51;1.92;;;0.90;;
17917;SDS011;9084;50.956;3.106;2023-07-13T15:12:19;1.77;;;0.95;;
17917;SDS011;9084;50.956;3.106;2023-07-13T15:14:45;1.23;;;1.00;;
17917;SDS011;9084;50.956;3.106;2023-07-13T15:17:24;1.77;;;0.82;;
17917;SDS011;9084;50.956;3.106;2023-07-13T15:19:56;1.75;;;1.05;;
17917;SDS011;9084;50.956;3.106;2023-07-13T15:22:22;1.48;;;1.00;;
17917;SDS011;9084;50.956;3.106;2023-07-13T15:24:49;0.93;;;0.88;;
17917;SDS011;9084;50.956;3.106;2023-07-13T15:27:18;1.10;;;1.00;;
17917;SDS011;9084;50.956;3.106;2023-07-13T15:29:43;1.67;;;0.90;;
17917;SDS011;9084;50.956;3.106;2023-07-13T15:32:13;2.05;;;0.80;;
17917;SDS011;9084;50.956;3.106;2023-07-13T15:34:41;1.83;;;0.73;;
17917;SDS011;9084;50.956;3.106;2023-07-13T15:37:14;1.83;;;0.90;;
17917;SDS011;9084;50.956;3.106;2023-07-13T15:39:47;2.88;;;0.90;;
17917;SDS011;9084;50.956;3.106;2023-07-13T15:42:15;1.92;;;1.10;;
17917;SDS011;9084;50.956;3.106;2023-07-13T15:44:43;1.58;;;0.80;;
17917;SDS011;9084;50.956;3.106;2023-07-13T15:47:13;2.70;;;0.85;;
17917;SDS011;9084;50.956;3.106;2023-07-13T15:49:40;1.75;;;0.85;;
17917;SDS011;9084;50.956;3.106;2023-07-13T15:52:24;2.38;;;1.10;;
17917;SDS011;9084;50.956;3.106;2023-07-13T15:54:50;2.22;;;0.90;;
17917;SDS011;9084;50.956;3.106;2023-07-13T15:57:16;1.33;;;0.90;;
17917;SDS011;9084;50.956;3.106;2023-07-13T15:59:43;2.95;;;0.98;;
17917;SDS011;9084;50.956;3.106;2023-07-13T16:02:12;2.42;;;0.93;;
17917;SDS011;9084;50.956;3.106;2023-07-13T16:04:47;1.27;;;0.80;;
17917;SDS011;9084;50.956;3.106;2023-07-13T16:07:13;2.40;;;0.85;;